Time;durP1;ratioP1;P1;durP2;ratioP2;P2;SDS_P1;SDS_P2;PMS_P1;PMS_P2;Temp;Humidity;BMP_temperature;BMP_pressure;BME280_temperature;BME280_humidity;BME280_pressure;Samples;Min_cycle;Max_cycle;Signal;HPM_P1;HPM_P2
2021/03/06 00:00:27;;;;;;;12.25;8.07;;;;;;;;;;5118065;28;20047;-86
2021/03/06 00:02:53;;;;;;;12.85;8.20;;;;;;;;;;5118248;28;20329;-86
2021/03/06 00:05:20;;;;;;;10.70;7.43;;;;;;;;;;5117924;28;20081;-86
2021/03/06 00:07:46;;;;;;;10.52;6.93;;;;;;;;;;5118419;28;20019;-86
2021/03/06 00:10:13;;;;;;;9.98;6.82;;;;;;;;;;5117795;28;20024;-87
2021/03/06 00:12:40;;;;;;;13.27;8.07;;;;;;;;;;5117932;28;20023;-86
2021/03/06 00:15:07;;;;;;;9.98;6.72;;;;;;;;;;5118110;28;20020;-85
2021/03/06 00:17:33;;;;;;;11.43;6.57;;;;;;;;;;5117039;28;20028;-87
2021/03/06 00:19:59;;;;;;;11.05;7.30;;;;;;;;;;5117602;28;20051;-86
2021/03/06 00:22:25;;;;;;;9.85;6.78;;;;;;;;;;5117855;28;20051;-86
2021/03/06 00:24:51;;;;;;;10.30;6.80;;;;;;;;;;5118214;28;20030;-86
2021/03/06 00:27:55;;;;;;;11.80;7.18;;;;;;;;;;5132502;28;20053;-86
2021/03/06 00:30:21;;;;;;;10.57;6.68;;;;;;;;;;5137431;28;20076;-86
2021/03/06 00:32:47;;;;;;;10.45;7.30;;;;;;;;;;5141048;27;20109;-85
2021/03/06 00:35:14;;;;;;;10.68;7.20;;;;;;;;;;5142409;27;20102;-85
2021/03/06 00:37:40;;;;;;;12.38;7.70;;;;;;;;;;5143035;27;20023;-86
2021/03/06 00:40:07;;;;;;;9.93;7.20;;;;;;;;;;5142816;27;20084;-85
2021/03/06 00:42:34;;;;;;;11.13;7.90;;;;;;;;;;5141501;27;20050;-85
2021/03/06 00:45:00;;;;;;;11.32;7.90;;;;;;;;;;5141738;27;20142;-87
2021/03/06 00:47:26;;;;;;;12.15;7.65;;;;;;;;;;5142956;27;20033;-87
2021/03/06 00:49:52;;;;;;;12.10;7.95;;;;;;;;;;5142881;27;20023;-87
2021/03/06 00:52:18;;;;;;;11.93;7.13;;;;;;;;;;5142286;27;20030;-86
2021/03/06 00:54:44;;;;;;;15.68;10.13;;;;;;;;;;5142665;27;20102;-86
2021/03/06 01:00:14;;;;;;;12.30;8.75;;;;;;;;;;5142017;27;20049;-87
2021/03/06 01:02:40;;;;;;;12.35;8.05;;;;;;;;;;5142280;27;20027;-87
2021/03/06 01:05:07;;;;;;;11.43;8.10;;;;;;;;;;5141323;27;20058;-86
2021/03/06 01:07:33;;;;;;;13.25;8.38;;;;;;;;;;5140966;27;20027;-86
2021/03/06 01:09:59;;;;;;;13.02;8.50;;;;;;;;;;5141120;27;20027;-86
2021/03/06 01:12:25;;;;;;;14.20;8.55;;;;;;;;;;5141931;27;20038;-85
2021/03/06 01:14:51;;;;;;;12.65;8.57;;;;;;;;;;5141989;27;20029;-86
2021/03/06 01:17:17;;;;;;;14.30;8.77;;;;;;;;;;5142025;27;20064;-85
2021/03/06 01:19:43;;;;;;;13.75;8.23;;;;;;;;;;5140835;27;20109;-86
2021/03/06 01:22:09;;;;;;;13.25;8.35;;;;;;;;;;5140801;27;20027;-85
2021/03/06 01:24:36;;;;;;;14.23;8.55;;;;;;;;;;5142024;27;20126;-85
2021/03/06 01:27:02;;;;;;;13.60;8.55;;;;;;;;;;5141504;27;20019;-86
2021/03/06 01:29:29;;;;;;;18.95;9.82;;;;;;;;;;5141549;27;20428;-86
2021/03/06 01:31:55;;;;;;;12.25;8.38;;;;;;;;;;5141552;27;20031;-86
2021/03/06 01:34:21;;;;;;;14.82;8.77;;;;;;;;;;5140460;27;20409;-86
2021/03/06 01:36:47;;;;;;;15.52;8.52;;;;;;;;;;5141641;27;20056;-86
2021/03/06 01:39:13;;;;;;;14.85;8.68;;;;;;;;;;5141533;27;20019;-87
2021/03/06 01:41:39;;;;;;;16.17;8.95;;;;;;;;;;5140029;27;20031;-85
2021/03/06 01:44:05;;;;;;;16.70;9.20;;;;;;;;;;5140237;27;20055;-85
2021/03/06 01:46:31;;;;;;;14.48;8.52;;;;;;;;;;5141166;27;20045;-85
2021/03/06 01:48:57;;;;;;;13.43;9.30;;;;;;;;;;5127896;27;20128;-86
2021/03/06 01:51:23;;;;;;;15.88;10.27;;;;;;;;;;5104346;28;20024;-86
2021/03/06 01:53:49;;;;;;;14.98;8.88;;;;;;;;;;5120341;28;20314;-86
2021/03/06 01:56:16;;;;;;;14.63;8.30;;;;;;;;;;5119512;28;20069;-85
2021/03/06 01:58:42;;;;;;;14.65;9.18;;;;;;;;;;5119461;28;20032;-86
2021/03/06 02:01:09;;;;;;;14.48;9.15;;;;;;;;;;5120214;28;20089;-85
2021/03/06 02:03:36;;;;;;;15.15;9.90;;;;;;;;;;5119616;28;20072;-86
2021/03/06 02:06:02;;;;;;;13.60;9.25;;;;;;;;;;5119156;28;20127;-86
2021/03/06 02:08:28;;;;;;;14.25;9.02;;;;;;;;;;5120607;28;20023;-85
2021/03/06 02:10:54;;;;;;;13.52;9.02;;;;;;;;;;5120244;28;20432;-86
2021/03/06 02:13:26;;;;;;;17.20;9.55;;;;;;;;;;5120428;28;20020;-86
2021/03/06 02:16:02;;;;;;;15.50;9.00;;;;;;;;;;5118899;28;20366;-85
2021/03/06 02:18:37;;;;;;;15.52;9.82;;;;;;;;;;5119989;28;20052;-85
2021/03/06 02:21:07;;;;;;;16.83;9.25;;;;;;;;;;5118447;28;20032;-86
2021/03/06 02:23:51;;;;;;;15.20;9.68;;;;;;;;;;5120227;28;20023;-85
2021/03/06 02:26:23;;;;;;;15.70;9.55;;;;;;;;;;5120001;28;20023;-86
2021/03/06 02:31:54;;;;;;;15.57;9.88;;;;;;;;;;5120206;28;20064;-86
2021/03/06 02:34:26;;;;;;;15.60;9.90;;;;;;;;;;5118903;28;20022;-85
2021/03/06 02:36:55;;;;;;;14.57;9.60;;;;;;;;;;5119225;28;20131;-86
2021/03/06 02:39:24;;;;;;;16.33;9.98;;;;;;;;;;5119829;28;20027;-85
2021/03/06 02:41:51;;;;;;;16.33;10.30;;;;;;;;;;5119535;28;20024;-84
2021/03/06 02:47:20;;;;;;;16.27;9.95;;;;;;;;;;5119733;28;20073;-86
2021/03/06 02:49:56;;;;;;;16.70;10.18;;;;;;;;;;5119312;28;20024;-86
2021/03/06 02:52:23;;;;;;;17.00;10.75;;;;;;;;;;5119698;28;20047;-86
2021/03/06 02:54:49;;;;;;;15.23;10.02;;;;;;;;;;5119073;28;20080;-86
2021/03/06 02:57:29;;;;;;;15.30;9.85;;;;;;;;;;5119474;28;20102;-87
2021/03/06 03:00:03;;;;;;;18.50;10.05;;;;;;;;;;5118980;28;20052;-87
2021/03/06 03:02:48;;;;;;;18.33;10.48;;;;;;;;;;5117850;28;20338;-85
2021/03/06 03:05:28;;;;;;;15.18;9.73;;;;;;;;;;5119222;28;20073;-88
2021/03/06 03:07:54;;;;;;;15.65;10.32;;;;;;;;;;5119242;28;20051;-87
2021/03/06 03:10:21;;;;;;;15.57;10.25;;;;;;;;;;5117659;28;20034;-87
2021/03/06 03:12:58;;;;;;;17.75;10.07;;;;;;;;;;5118061;28;20020;-86
2021/03/06 03:15:35;;;;;;;15.48;10.27;;;;;;;;;;5118153;28;20145;-86
2021/03/06 03:18:02;;;;;;;16.67;10.10;;;;;;;;;;5118126;28;20027;-87
2021/03/06 03:20:28;;;;;;;16.13;9.90;;;;;;;;;;5117934;28;20024;-85
2021/03/06 03:22:57;;;;;;;16.52;10.60;;;;;;;;;;5117901;28;20432;-86
2021/03/06 03:25:23;;;;;;;16.58;11.07;;;;;;;;;;5118874;28;20068;-86
2021/03/06 03:27:59;;;;;;;19.60;10.30;;;;;;;;;;5118669;28;20024;-86
2021/03/06 03:30:25;;;;;;;19.60;10.85;;;;;;;;;;5117454;28;20080;-87
2021/03/06 03:32:52;;;;;;;14.85;8.77;;;;;;;;;;5117263;28;20059;-87
2021/03/06 03:35:20;;;;;;;16.10;8.88;;;;;;;;;;5117581;28;20016;-86
2021/03/06 03:37:47;;;;;;;13.18;8.02;;;;;;;;;;5117712;28;20045;-86
2021/03/06 03:40:13;;;;;;;14.63;7.93;;;;;;;;;;5118592;28;20416;-87
2021/03/06 03:42:40;;;;;;;13.32;7.75;;;;;;;;;;5116997;28;20451;-86
2021/03/06 03:45:07;;;;;;;12.75;7.15;;;;;;;;;;5118810;28;20084;-87
2021/03/06 03:47:34;;;;;;;12.02;7.57;;;;;;;;;;5118075;28;20023;-87
2021/03/06 03:50:00;;;;;;;16.25;7.95;;;;;;;;;;5131092;27;20019;-86
2021/03/06 03:52:27;;;;;;;15.82;9.20;;;;;;;;;;5139034;27;20038;-86
2021/03/06 03:54:53;;;;;;;21.33;10.50;;;;;;;;;;5139010;27;20020;-87
2021/03/06 03:57:19;;;;;;;30.25;14.60;;;;;;;;;;5139181;27;20389;-86
2021/03/06 03:59:45;;;;;;;34.60;18.13;;;;;;;;;;5135449;27;20051;-86
2021/03/06 04:02:20;;;;;;;29.75;17.60;;;;;;;;;;5138767;27;20436;-87
2021/03/06 04:04:46;;;;;;;23.90;14.93;;;;;;;;;;5139214;27;20063;-87
2021/03/06 04:07:15;;;;;;;20.55;13.38;;;;;;;;;;5138017;27;20023;-87
2021/03/06 04:09:41;;;;;;;18.08;10.35;;;;;;;;;;5138760;27;20023;-87
2021/03/06 04:12:07;;;;;;;16.70;9.88;;;;;;;;;;5138694;27;20060;-87
2021/03/06 04:17:38;;;;;;;17.55;9.30;;;;;;;;;;5138803;27;20026;-86
2021/03/06 04:20:05;;;;;;;16.50;9.48;;;;;;;;;;5125730;27;20019;-87
2021/03/06 04:22:31;;;;;;;19.80;9.52;;;;;;;;;;5116827;28;20035;-87
2021/03/06 04:24:57;;;;;;;18.63;9.13;;;;;;;;;;5118114;28;20076;-87
2021/03/06 04:27:23;;;;;;;11.57;7.25;;;;;;;;;;5118086;28;20106;-87
2021/03/06 04:29:49;;;;;;;15.10;7.13;;;;;;;;;;5116848;28;20031;-86
2021/03/06 04:32:15;;;;;;;12.02;6.05;;;;;;;;;;5117331;28;20080;-85
2021/03/06 04:34:41;;;;;;;11.50;6.45;;;;;;;;;;5117576;28;20020;-86
2021/03/06 04:37:08;;;;;;;10.32;5.93;;;;;;;;;;5117883;28;20019;-86
2021/03/06 04:39:34;;;;;;;12.02;6.32;;;;;;;;;;5117759;28;20402;-85
2021/03/06 04:42:00;;;;;;;11.88;6.72;;;;;;;;;;5117773;28;20033;-86
2021/03/06 04:47:30;;;;;;;22.63;10.95;;;;;;;;;;5117987;28;20085;-88
2021/03/06 04:49:56;;;;;;;28.55;10.90;;;;;;;;;;5116905;28;20069;-87
2021/03/06 04:52:22;;;;;;;14.38;8.13;;;;;;;;;;5116689;28;20325;-88
2021/03/06 04:54:48;;;;;;;14.77;7.13;;;;;;;;;;5118043;28;20359;-88
2021/03/06 04:57:14;;;;;;;14.20;8.00;;;;;;;;;;5116496;28;20028;-88
2021/03/06 04:59:42;;;;;;;14.52;8.27;;;;;;;;;;5117710;27;20030;-87
2021/03/06 05:02:08;;;;;;;15.10;8.15;;;;;;;;;;5117458;28;20429;-85
2021/03/06 05:04:34;;;;;;;16.20;8.57;;;;;;;;;;5117556;28;20519;-85
2021/03/06 05:07:00;;;;;;;12.88;7.55;;;;;;;;;;5117478;28;20027;-86
2021/03/06 05:09:26;;;;;;;9.82;6.55;;;;;;;;;;5117700;28;20398;-87
2021/03/06 05:11:52;;;;;;;12.15;6.63;;;;;;;;;;5117635;28;20023;-87
2021/03/06 05:14:18;;;;;;;11.82;6.22;;;;;;;;;;5116699;28;20024;-87
2021/03/06 05:16:44;;;;;;;12.88;6.78;;;;;;;;;;5117768;28;20049;-88
2021/03/06 05:19:10;;;;;;;11.35;5.75;;;;;;;;;;5119120;28;20020;-86
2021/03/06 05:21:37;;;;;;;8.75;5.35;;;;;;;;;;5121407;28;20020;-87
2021/03/06 05:24:03;;;;;;;10.50;5.47;;;;;;;;;;5121509;28;20410;-87
2021/03/06 05:26:30;;;;;;;12.02;5.85;;;;;;;;;;5121529;28;20031;-87
2021/03/06 05:28:56;;;;;;;10.55;5.38;;;;;;;;;;5121236;28;20059;-86
2021/03/06 05:31:22;;;;;;;9.93;5.55;;;;;;;;;;5121209;28;20023;-86
2021/03/06 05:33:48;;;;;;;9.68;4.95;;;;;;;;;;5103153;28;20447;-86
2021/03/06 05:36:14;;;;;;;10.48;4.82;;;;;;;;;;5121282;28;20019;-86
2021/03/06 05:38:40;;;;;;;8.13;4.75;;;;;;;;;;5120947;28;20024;-86
2021/03/06 05:41:06;;;;;;;12.43;5.15;;;;;;;;;;5121176;28;20024;-85
2021/03/06 05:43:32;;;;;;;12.48;5.05;;;;;;;;;;5120853;28;20428;-86
2021/03/06 05:45:58;;;;;;;10.35;6.10;;;;;;;;;;5121004;28;20047;-86
2021/03/06 05:48:24;;;;;;;11.48;5.80;;;;;;;;;;5120678;28;20051;-86
2021/03/06 05:50:52;;;;;;;11.02;6.35;;;;;;;;;;5139725;27;20026;-86
2021/03/06 05:53:20;;;;;;;20.13;8.93;;;;;;;;;;5141209;27;20019;-87
2021/03/06 05:55:52;;;;;;;19.60;9.15;;;;;;;;;;5134934;27;20137;-87
2021/03/06 06:01:22;;;;;;;15.20;8.20;;;;;;;;;;5111080;28;20271;-86
2021/03/06 06:03:48;;;;;;;14.13;7.15;;;;;;;;;;5120703;28;20306;-86
2021/03/06 06:06:14;;;;;;;12.88;6.60;;;;;;;;;;5120638;28;20047;-86
2021/03/06 06:08:41;;;;;;;17.15;9.00;;;;;;;;;;5120655;28;20023;-85
2021/03/06 06:11:07;;;;;;;24.42;13.40;;;;;;;;;;5119371;28;20020;-86
2021/03/06 06:13:48;;;;;;;20.15;10.50;;;;;;;;;;5120217;28;20141;-85
2021/03/06 06:16:15;;;;;;;21.30;10.57;;;;;;;;;;5120493;28;20034;-85
2021/03/06 06:18:41;;;;;;;19.35;9.77;;;;;;;;;;5120132;28;20410;-86
2021/03/06 06:21:27;;;;;;;21.27;10.18;;;;;;;;;;5120102;28;20031;-85
2021/03/06 06:24:05;;;;;;;26.17;10.77;;;;;;;;;;5119933;28;20023;-85
2021/03/06 06:26:32;;;;;;;15.13;8.15;;;;;;;;;;5119946;28;20028;-94
2021/03/06 06:28:58;;;;;;;13.55;6.32;;;;;;;;;;5119704;28;20031;-95
2021/03/06 06:31:24;;;;;;;14.48;7.18;;;;;;;;;;5119619;28;20031;-94
2021/03/06 06:33:53;;;;;;;13.75;6.80;;;;;;;;;;5120454;28;20026;-93
2021/03/06 06:36:38;;;;;;;20.60;7.13;;;;;;;;;;5119153;28;20019;-89
2021/03/06 06:39:06;;;;;;;15.40;7.55;;;;;;;;;;5120111;28;20035;-79
2021/03/06 06:41:48;;;;;;;14.30;7.18;;;;;;;;;;5118137;28;20019;-80
2021/03/06 06:44:14;;;;;;;15.15;7.18;;;;;;;;;;5119474;28;20111;-79
2021/03/06 06:46:40;;;;;;;13.82;6.70;;;;;;;;;;5119188;28;20043;-80
2021/03/06 06:49:06;;;;;;;13.25;5.78;;;;;;;;;;5119296;28;20031;-80
2021/03/06 06:51:32;;;;;;;13.70;5.78;;;;;;;;;;5118989;28;20023;-80
2021/03/06 06:54:11;;;;;;;11.18;6.07;;;;;;;;;;5118851;28;20032;-79
2021/03/06 06:56:37;;;;;;;10.63;5.45;;;;;;;;;;5118998;28;20107;-80
2021/03/06 06:59:04;;;;;;;16.02;7.00;;;;;;;;;;5118815;28;20303;-80
2021/03/06 07:01:33;;;;;;;9.48;4.97;;;;;;;;;;5118661;28;20035;-80
2021/03/06 07:04:03;;;;;;;9.80;4.43;;;;;;;;;;5117910;28;20055;-79
2021/03/06 07:06:29;;;;;;;10.45;5.05;;;;;;;;;;5117279;28;20122;-80
2021/03/06 07:09:06;;;;;;;12.30;4.75;;;;;;;;;;5118946;28;20415;-79
2021/03/06 07:11:33;;;;;;;9.20;4.45;;;;;;;;;;5118690;28;20028;-80
2021/03/06 07:13:59;;;;;;;11.00;5.40;;;;;;;;;;5118682;28;20034;-80
2021/03/06 07:16:27;;;;;;;10.38;4.75;;;;;;;;;;5118548;28;20068;-79
2021/03/06 07:19:02;;;;;;;8.02;4.20;;;;;;;;;;5118394;28;20020;-80
2021/03/06 07:21:28;;;;;;;10.02;5.32;;;;;;;;;;5117430;28;20027;-80
2021/03/06 07:23:54;;;;;;;8.75;4.30;;;;;;;;;;5118611;28;20046;-79
2021/03/06 07:26:20;;;;;;;11.20;4.60;;;;;;;;;;5118565;28;20054;-80
2021/03/06 07:28:46;;;;;;;9.80;5.18;;;;;;;;;;5118501;28;20032;-79
2021/03/06 07:31:15;;;;;;;11.05;4.28;;;;;;;;;;5118366;28;20023;-79
2021/03/06 07:33:42;;;;;;;10.73;4.40;;;;;;;;;;5118069;28;20346;-79
2021/03/06 07:36:10;;;;;;;9.18;4.30;;;;;;;;;;5118167;28;20023;-79
2021/03/06 07:38:36;;;;;;;10.57;4.75;;;;;;;;;;5116848;28;20039;-81
2021/03/06 07:41:05;;;;;;;10.90;4.93;;;;;;;;;;5117720;28;20031;-80
2021/03/06 07:43:32;;;;;;;12.10;5.32;;;;;;;;;;5118241;28;20023;-80
2021/03/06 07:45:58;;;;;;;11.02;5.68;;;;;;;;;;5117912;28;20031;-79
2021/03/06 07:48:26;;;;;;;7.93;4.22;;;;;;;;;;5117887;28;20054;-80
2021/03/06 07:50:52;;;;;;;11.43;6.00;;;;;;;;;;5117904;28;20402;-79
2021/03/06 07:53:19;;;;;;;10.68;5.50;;;;;;;;;;5116666;28;20035;-80
2021/03/06 07:55:45;;;;;;;11.75;5.82;;;;;;;;;;5117846;28;20064;-80
2021/03/06 07:58:22;;;;;;;14.98;6.95;;;;;;;;;;5116817;28;20022;-79
2021/03/06 08:00:55;;;;;;;14.57;5.97;;;;;;;;;;5097111;28;20304;-80
2021/03/06 08:03:30;;;;;;;13.60;6.45;;;;;;;;;;5097595;28;20024;-81
2021/03/06 08:06:01;;;;;;;19.70;8.70;;;;;;;;;;5097637;28;20027;-79
2021/03/06 08:08:32;;;;;;;21.33;8.32;;;;;;;;;;5097449;28;20024;-80
2021/03/06 08:11:11;;;;;;;16.23;6.38;;;;;;;;;;5096207;28;20016;-80
2021/03/06 08:13:38;;;;;;;9.85;4.75;;;;;;;;;;5097077;28;20393;-80
2021/03/06 08:16:22;;;;;;;11.77;5.60;;;;;;;;;;5097430;28;20020;-80
2021/03/06 08:18:49;;;;;;;8.50;4.75;;;;;;;;;;5125805;27;20110;-80
2021/03/06 08:21:31;;;;;;;13.95;6.18;;;;;;;;;;5119564;27;20035;-79
2021/03/06 08:24:15;;;;;;;13.90;7.05;;;;;;;;;;5138083;27;20087;-80
2021/03/06 08:26:51;;;;;;;10.57;4.68;;;;;;;;;;5138282;27;20106;-80
2021/03/06 08:29:24;;;;;;;9.88;4.70;;;;;;;;;;5137812;27;20039;-79
2021/03/06 08:31:50;;;;;;;;;;;;;;;;;;5129882;27;20434;-79
2021/03/06 08:34:31;;;;;;;8.73;5.03;;;;;;;;;;5129385;28;19911;-80
2021/03/06 08:37:16;;;;;;;7.53;4.07;;;;;;;;;;5137881;28;20034;-80
2021/03/06 08:39:49;;;;;;;11.35;5.93;;;;;;;;;;5136824;28;20027;-80
2021/03/06 08:42:16;;;;;;;16.05;8.40;;;;;;;;;;5137007;28;20031;-79
2021/03/06 08:44:42;;;;;;;21.55;11.57;;;;;;;;;;5137763;28;20298;-79
2021/03/06 08:47:09;;;;;;;21.48;11.30;;;;;;;;;;5137752;28;20030;-79
2021/03/06 08:49:35;;;;;;;13.95;7.28;;;;;;;;;;5137741;28;20019;-80
2021/03/06 08:52:02;;;;;;;9.43;4.85;;;;;;;;;;5137744;27;20119;-79
2021/03/06 08:54:28;;;;;;;27.88;12.73;;;;;;;;;;5141658;27;20019;-80
2021/03/06 08:56:54;;;;;;;31.83;12.85;;;;;;;;;;5141900;27;20020;-79
2021/03/06 08:59:36;;;;;;;20.70;7.40;;;;;;;;;;5141671;27;20038;-80
2021/03/06 09:02:05;;;;;;;;;;;;;;;;;;5142072;27;20377;-81
2021/03/06 09:04:31;;;;;;;12.73;4.90;;;;;;;;;;5142049;27;20242;-79
2021/03/06 09:06:57;;;;;;;12.15;5.05;;;;;;;;;;5141498;27;20026;-79
2021/03/06 09:09:28;;;;;;;8.63;4.53;;;;;;;;;;5140613;27;20128;-79
2021/03/06 09:11:58;;;;;;;9.13;4.70;;;;;;;;;;5140132;27;20035;-80
2021/03/06 09:14:25;;;;;;;8.40;3.95;;;;;;;;;;5141447;27;20046;-79
2021/03/06 09:16:51;;;;;;;7.93;3.60;;;;;;;;;;5141977;27;20037;-79
2021/03/06 09:19:29;;;;;;;6.25;3.08;;;;;;;;;;5141357;27;20023;-79
2021/03/06 09:22:01;;;;;;;10.23;4.78;;;;;;;;;;5141570;27;20316;-80
2021/03/06 09:24:50;;;;;;;13.90;5.03;;;;;;;;;;5127377;27;20023;-79
2021/03/06 09:27:16;;;;;;;8.23;3.45;;;;;;;;;;5124456;27;20032;-92
2021/03/06 09:29:43;;;;;;;25.17;11.40;;;;;;;;;;5123790;27;20165;-80
2021/03/06 09:32:09;;;;;;;22.08;12.90;;;;;;;;;;5120645;28;20063;-79
2021/03/06 09:34:36;;;;;;;6.40;3.45;;;;;;;;;;5120519;28;20019;-80
2021/03/06 09:37:14;;;;;;;6.45;3.47;;;;;;;;;;5120107;27;20028;-80
2021/03/06 09:39:40;;;;;;;6.25;3.13;;;;;;;;;;5120503;28;20463;-80
2021/03/06 09:42:06;;;;;;;8.65;3.42;;;;;;;;;;5120396;28;20410;-79
2021/03/06 09:44:32;;;;;;;6.13;2.83;;;;;;;;;;5120655;28;20057;-79
2021/03/06 09:47:00;;;;;;;5.35;3.00;;;;;;;;;;5120194;28;20413;-78
2021/03/06 09:49:33;;;;;;;5.90;3.20;;;;;;;;;;5120127;28;20456;-79
2021/03/06 09:51:59;;;;;;;9.02;4.20;;;;;;;;;;5120190;28;20020;-80
2021/03/06 09:54:26;;;;;;;5.15;3.42;;;;;;;;;;5124134;27;20126;-81
2021/03/06 09:56:53;;;;;;;6.45;2.83;;;;;;;;;;5140774;27;20012;-79
2021/03/06 09:59:20;;;;;;;10.00;4.65;;;;;;;;;;5140509;27;20114;-93
2021/03/06 10:01:46;;;;;;;7.18;3.10;;;;;;;;;;5139605;27;20134;-80
2021/03/06 10:04:13;;;;;;;4.63;2.63;;;;;;;;;;5137948;27;20031;-80
2021/03/06 10:06:44;;;;;;;5.75;3.17;;;;;;;;;;5121958;27;20020;-79
2021/03/06 10:09:11;;;;;;;5.68;2.42;;;;;;;;;;5119511;28;20031;-79
2021/03/06 10:11:47;;;;;;;6.38;3.65;;;;;;;;;;5119241;28;20107;-79
2021/03/06 10:14:26;;;;;;;7.88;4.05;;;;;;;;;;5119022;28;20428;-82
2021/03/06 10:16:54;;;;;;;7.55;3.00;;;;;;;;;;5120439;28;20020;-80
2021/03/06 10:19:21;;;;;;;4.50;2.50;;;;;;;;;;5120138;28;20015;-86
2021/03/06 10:22:18;;;;;;;3.47;2.40;;;;;;;;;;5119679;28;20020;-85
2021/03/06 10:25:04;;;;;;;5.78;2.75;;;;;;;;;;5037688;28;20033;-85
2021/03/06 10:27:34;;;;;;;3.83;2.22;;;;;;;;;;5037431;28;20034;-85
2021/03/06 10:30:33;;;;;;;7.68;3.72;;;;;;;;;;5037406;28;20037;-84
2021/03/06 10:33:02;;;;;;;13.05;4.60;;;;;;;;;;4959147;29;20032;-85
2021/03/06 10:35:49;;;;;;;8.38;4.60;;;;;;;;;;4959356;29;20039;-79
2021/03/06 10:38:21;;;;;;;15.85;5.95;;;;;;;;;;4958840;29;20315;-84
2021/03/06 10:40:47;;;;;;;11.93;5.03;;;;;;;;;;4958788;29;20453;-84
2021/03/06 10:43:28;;;;;;;18.60;7.70;;;;;;;;;;4958932;29;20043;-84
2021/03/06 10:45:55;;;;;;;9.55;4.57;;;;;;;;;;4958986;29;20318;-84
2021/03/06 10:48:28;;;;;;;13.13;6.80;;;;;;;;;;4958856;29;20393;-84
2021/03/06 10:50:55;;;;;;;4.55;2.50;;;;;;;;;;4958938;29;20418;-84
2021/03/06 10:53:22;;;;;;;9.10;4.63;;;;;;;;;;4958769;29;20035;-85
2021/03/06 10:55:50;;;;;;;13.07;6.38;;;;;;;;;;4958327;29;20102;-84
2021/03/06 10:58:16;;;;;;;6.13;2.75;;;;;;;;;;4958761;29;20485;-84
2021/03/06 11:00:43;;;;;;;29.27;10.48;;;;;;;;;;4979037;28;20061;-84
2021/03/06 11:03:11;;;;;;;9.60;3.72;;;;;;;;;;5017113;28;20041;-84
2021/03/06 11:05:37;;;;;;;5.88;3.67;;;;;;;;;;5017047;28;20157;-84
2021/03/06 11:08:17;;;;;;;7.35;4.00;;;;;;;;;;5048846;28;20065;-84
2021/03/06 11:10:45;;;;;;;5.75;3.13;;;;;;;;;;5119081;28;20110;-84
2021/03/06 11:13:11;;;;;;;6.25;2.92;;;;;;;;;;5118972;28;20024;-84
2021/03/06 11:15:45;;;;;;;6.55;3.47;;;;;;;;;;5118432;28;20405;-84
2021/03/06 11:18:11;;;;;;;7.45;3.28;;;;;;;;;;5118852;28;20031;-84
2021/03/06 11:20:39;;;;;;;11.85;3.90;;;;;;;;;;5118873;28;20095;-92
2021/03/06 11:23:05;;;;;;;10.60;3.90;;;;;;;;;;5118897;28;20034;-84
2021/03/06 11:25:32;;;;;;;8.98;4.65;;;;;;;;;;5117547;28;20031;-84
2021/03/06 11:28:08;;;;;;;8.20;3.67;;;;;;;;;;5118918;28;20069;-84
2021/03/06 11:30:35;;;;;;;6.25;3.90;;;;;;;;;;5117533;28;20042;-84
2021/03/06 11:33:02;;;;;;;5.72;2.60;;;;;;;;;;5118565;28;20058;-84
2021/03/06 11:35:28;;;;;;;4.53;3.00;;;;;;;;;;5117006;28;20110;-84
2021/03/06 11:37:55;;;;;;;4.82;2.40;;;;;;;;;;5118742;28;20016;-84
2021/03/06 11:40:23;;;;;;;10.32;4.15;;;;;;;;;;5118602;28;20043;-85
2021/03/06 11:42:49;;;;;;;9.40;3.08;;;;;;;;;;5118581;28;20020;-84
2021/03/06 11:45:16;;;;;;;17.23;6.97;;;;;;;;;;5116575;28;20036;-84
2021/03/06 11:47:43;;;;;;;12.38;5.25;;;;;;;;;;5118234;28;20486;-86
2021/03/06 11:50:10;;;;;;;6.72;3.53;;;;;;;;;;5118825;28;20317;-91
2021/03/06 11:52:37;;;;;;;7.72;3.78;;;;;;;;;;5118240;28;20299;-87
2021/03/06 11:55:03;;;;;;;7.05;4.35;;;;;;;;;;5118910;28;20038;-89
2021/03/06 11:57:29;;;;;;;8.07;2.70;;;;;;;;;;5117570;28;20440;-90
2021/03/06 11:59:56;;;;;;;4.97;2.67;;;;;;;;;;5117172;28;20040;-88
2021/03/06 12:02:22;;;;;;;4.22;2.47;;;;;;;;;;5116823;28;20043;-88
2021/03/06 12:04:49;;;;;;;6.30;3.38;;;;;;;;;;5117194;28;20476;-87
2021/03/06 12:07:15;;;;;;;5.55;3.45;;;;;;;;;;5118146;28;20024;-89
2021/03/06 12:09:41;;;;;;;6.82;4.00;;;;;;;;;;5118402;28;20034;-90
2021/03/06 12:12:08;;;;;;;5.72;3.60;;;;;;;;;;5118004;28;20034;-90
2021/03/06 12:14:34;;;;;;;8.88;3.50;;;;;;;;;;5118321;28;20016;-89
2021/03/06 12:17:00;;;;;;;4.28;2.45;;;;;;;;;;5117099;28;20031;-88
2021/03/06 12:19:26;;;;;;;3.40;2.22;;;;;;;;;;5118463;28;20023;-88
2021/03/06 12:21:52;;;;;;;6.20;3.58;;;;;;;;;;5118335;28;20031;-88
2021/03/06 12:24:18;;;;;;;8.73;3.30;;;;;;;;;;5118327;28;20026;-88
2021/03/06 12:26:47;;;;;;;4.70;2.70;;;;;;;;;;5116636;28;20031;-88
2021/03/06 12:29:14;;;;;;;5.60;2.88;;;;;;;;;;5117751;28;20045;-85
2021/03/06 12:31:40;;;;;;;8.60;3.70;;;;;;;;;;5118001;28;20035;-89
2021/03/06 12:34:06;;;;;;;5.78;3.08;;;;;;;;;;5117734;28;20023;-88
2021/03/06 12:36:33;;;;;;;4.93;2.70;;;;;;;;;;5117194;28;20093;-88
2021/03/06 12:38:59;;;;;;;7.25;2.95;;;;;;;;;;5118265;28;20024;-88
2021/03/06 12:41:25;;;;;;;4.13;2.63;;;;;;;;;;5118077;28;20104;-88
2021/03/06 12:43:51;;;;;;;4.40;2.53;;;;;;;;;;5117066;28;20028;-88
2021/03/06 12:46:17;;;;;;;4.47;2.33;;;;;;;;;;5117960;28;20027;-87
2021/03/06 12:48:43;;;;;;;7.20;4.28;;;;;;;;;;5117892;28;20035;-88
2021/03/06 12:51:09;;;;;;;10.02;5.25;;;;;;;;;;5117525;28;20309;-88
2021/03/06 12:53:36;;;;;;;75.35;23.48;;;;;;;;;;5117714;28;20028;-88
2021/03/06 12:56:02;;;;;;;17.20;4.97;;;;;;;;;;5116319;28;20081;-87
2021/03/06 12:58:28;;;;;;;5.95;2.35;;;;;;;;;;5117876;28;20352;-87
2021/03/06 13:00:54;;;;;;;4.70;3.10;;;;;;;;;;5117814;28;20500;-88
2021/03/06 13:03:20;;;;;;;12.98;7.13;;;;;;;;;;5117339;28;20444;-88
2021/03/06 13:05:46;;;;;;;12.75;6.10;;;;;;;;;;5117954;28;20102;-87
2021/03/06 13:08:12;;;;;;;14.70;6.88;;;;;;;;;;5117710;28;20149;-87
2021/03/06 13:10:38;;;;;;;14.88;6.72;;;;;;;;;;5116363;28;20035;-88
2021/03/06 13:13:04;;;;;;;16.20;7.55;;;;;;;;;;5117371;28;20030;-87
2021/03/06 13:15:31;;;;;;;20.15;9.07;;;;;;;;;;5117721;28;20073;-88
2021/03/06 13:17:57;;;;;;;8.55;4.88;;;;;;;;;;5117462;28;20031;-87
2021/03/06 13:20:23;;;;;;;8.55;4.90;;;;;;;;;;5117593;28;20019;-88
2021/03/06 13:22:49;;;;;;;7.72;4.10;;;;;;;;;;5117943;28;20024;-87
2021/03/06 13:25:15;;;;;;;10.60;5.32;;;;;;;;;;5117582;28;20028;-87
2021/03/06 13:27:41;;;;;;;16.45;8.60;;;;;;;;;;5117632;28;20024;-87
2021/03/06 13:30:09;;;;;;;11.77;7.18;;;;;;;;;;5117403;28;20028;-88
2021/03/06 13:32:35;;;;;;;6.22;4.18;;;;;;;;;;5116400;28;20066;-87
2021/03/06 13:35:03;;;;;;;6.70;3.70;;;;;;;;;;5117280;28;20020;-88
2021/03/06 13:37:29;;;;;;;4.60;2.95;;;;;;;;;;5116101;28;20073;-87
2021/03/06 13:39:55;;;;;;;7.97;4.85;;;;;;;;;;5119093;28;20020;-87
2021/03/06 13:42:21;;;;;;;6.97;4.00;;;;;;;;;;5120788;28;20016;-88
2021/03/06 13:44:48;;;;;;;7.85;3.50;;;;;;;;;;5121001;28;20157;-88
2021/03/06 13:47:14;;;;;;;4.63;3.00;;;;;;;;;;5121043;28;20031;-88
2021/03/06 13:49:40;;;;;;;4.38;3.00;;;;;;;;;;5120982;28;20338;-87
2021/03/06 13:52:06;;;;;;;13.75;6.28;;;;;;;;;;5120259;28;20024;-87
2021/03/06 13:54:32;;;;;;;5.35;3.42;;;;;;;;;;5120678;28;20019;-86
2021/03/06 13:56:58;;;;;;;8.73;3.30;;;;;;;;;;5123239;27;20034;-86
2021/03/06 13:59:25;;;;;;;7.35;3.80;;;;;;;;;;5120666;28;20058;-86
2021/03/06 14:01:51;;;;;;;6.35;4.10;;;;;;;;;;5119168;28;20040;-88
2021/03/06 14:04:17;;;;;;;4.90;3.40;;;;;;;;;;5120558;28;20299;-86
2021/03/06 14:06:43;;;;;;;14.50;3.85;;;;;;;;;;5119708;28;20063;-87
2021/03/06 14:09:09;;;;;;;6.30;3.28;;;;;;;;;;5119272;28;20452;-86
2021/03/06 14:11:35;;;;;;;10.52;4.97;;;;;;;;;;5120508;28;20028;-85
2021/03/06 14:14:02;;;;;;;12.25;5.30;;;;;;;;;;5119026;28;20036;-85
2021/03/06 14:16:28;;;;;;;7.13;3.80;;;;;;;;;;5120383;28;20111;-85
2021/03/06 14:18:54;;;;;;;12.70;6.70;;;;;;;;;;5120480;28;20077;-86
2021/03/06 14:21:20;;;;;;;17.25;8.55;;;;;;;;;;5120242;28;20020;-86
2021/03/06 14:23:46;;;;;;;23.00;10.75;;;;;;;;;;5118851;28;20043;-86
2021/03/06 14:26:12;;;;;;;5.97;3.97;;;;;;;;;;5119943;28;20046;-86
2021/03/06 14:28:38;;;;;;;7.10;4.07;;;;;;;;;;5120289;28;20023;-86
2021/03/06 14:31:04;;;;;;;6.15;4.10;;;;;;;;;;5119078;28;20059;-86
2021/03/06 14:33:30;;;;;;;15.23;7.10;;;;;;;;;;5119877;28;20110;-85
2021/03/06 14:35:56;;;;;;;8.68;5.03;;;;;;;;;;5119830;28;20023;-86
2021/03/06 14:38:23;;;;;;;7.65;4.97;;;;;;;;;;5120173;28;20031;-85
2021/03/06 14:40:49;;;;;;;10.30;5.22;;;;;;;;;;5118826;28;20026;-84
2021/03/06 14:43:15;;;;;;;13.60;5.22;;;;;;;;;;5118728;28;20016;-85
2021/03/06 14:45:41;;;;;;;16.05;8.45;;;;;;;;;;5118528;28;20027;-85
2021/03/06 14:48:07;;;;;;;8.07;4.20;;;;;;;;;;5119626;28;20019;-85
2021/03/06 14:50:34;;;;;;;14.25;7.20;;;;;;;;;;5119203;28;20027;-82
2021/03/06 14:53:00;;;;;;;17.95;9.25;;;;;;;;;;5119087;28;20550;-82
2021/03/06 14:55:26;;;;;;;15.85;8.00;;;;;;;;;;5119248;28;20406;-81
2021/03/06 14:57:52;;;;;;;19.27;7.43;;;;;;;;;;5119246;28;20016;-83